createdAt,value
2018-07-30T00:00:28.339Z,3.17
2018-07-30T00:02:55.767Z,2.70
2018-07-30T00:05:23.140Z,2.90
2018-07-30T00:07:50.432Z,3.40
2018-07-30T00:10:17.839Z,3.20
2018-07-30T00:12:45.271Z,2.77
2018-07-30T00:15:12.455Z,3.57
2018-07-30T00:17:39.604Z,3.00
2018-07-30T00:20:06.801Z,3.50
2018-07-30T00:22:33.964Z,2.90
2018-07-30T00:25:01.127Z,3.53
2018-07-30T00:27:28.331Z,2.77
2018-07-30T00:29:55.568Z,3.10
2018-07-30T00:32:22.730Z,2.83
2018-07-30T00:34:49.898Z,3.40
2018-07-30T00:37:17.140Z,3.23
2018-07-30T00:39:44.304Z,3.10
2018-07-30T00:42:11.625Z,2.90
2018-07-30T00:44:38.879Z,3.23
2018-07-30T00:47:06.051Z,2.90
2018-07-30T00:49:33.231Z,2.70
2018-07-30T00:52:00.568Z,3.27
2018-07-30T00:54:27.761Z,3.07
2018-07-30T00:56:55.003Z,2.97
2018-07-30T00:59:22.091Z,3.00
2018-07-30T01:01:49.367Z,3.00
2018-07-30T01:04:16.606Z,2.90
2018-07-30T01:06:43.803Z,3.10
2018-07-30T01:09:11.201Z,3.70
2018-07-30T01:11:38.455Z,3.27
2018-07-30T01:14:05.667Z,3.40
2018-07-30T01:16:32.850Z,3.40
2018-07-30T01:19:00.032Z,3.33
2018-07-30T01:21:27.236Z,3.30
2018-07-30T01:23:54.480Z,3.80
2018-07-30T01:26:26.540Z,3.97
2018-07-30T01:28:53.820Z,3.30
2018-07-30T01:31:20.983Z,3.70
2018-07-30T01:33:48.147Z,3.40
2018-07-30T01:36:15.299Z,3.87
2018-07-30T01:38:42.456Z,3.50
2018-07-30T01:41:09.624Z,3.40
2018-07-30T01:43:36.776Z,3.87
2018-07-30T01:46:04.355Z,4.10
2018-07-30T01:48:31.539Z,4.10
2018-07-30T01:50:58.824Z,4.47
2018-07-30T01:53:26.303Z,3.70
2018-07-30T01:55:53.559Z,3.93
2018-07-30T01:58:20.808Z,4.13
2018-07-30T02:00:48.031Z,3.93
2018-07-30T02:03:15.203Z,3.30
2018-07-30T02:05:42.436Z,3.70
2018-07-30T02:08:09.676Z,3.90
2018-07-30T02:10:36.856Z,3.57
2018-07-30T02:13:04.142Z,4.30
2018-07-30T02:15:31.364Z,3.70
2018-07-30T02:17:58.540Z,3.40
2018-07-30T02:20:25.752Z,4.07
2018-07-30T02:22:52.955Z,3.60
2018-07-30T02:25:20.182Z,3.40
2018-07-30T02:27:47.360Z,3.60
2018-07-30T02:30:14.620Z,4.20
2018-07-30T02:32:41.811Z,3.40
2018-07-30T02:35:09.285Z,3.20
2018-07-30T02:37:36.520Z,3.87
2018-07-30T02:40:04.555Z,3.23
2018-07-30T02:42:31.755Z,4.20
2018-07-30T02:44:58.937Z,3.57
2018-07-30T02:47:26.127Z,3.47
2018-07-30T02:49:53.379Z,3.80
2018-07-30T02:52:20.564Z,3.90
2018-07-30T02:54:47.739Z,3.90
2018-07-30T02:57:14.919Z,3.60
2018-07-30T02:59:42.097Z,4.40
2018-07-30T03:02:09.259Z,3.20
2018-07-30T03:04:36.440Z,3.60
2018-07-30T03:07:03.636Z,4.10
2018-07-30T03:09:30.937Z,3.63
2018-07-30T03:11:58.054Z,3.87
2018-07-30T03:14:25.219Z,3.87
2018-07-30T03:16:52.412Z,3.83
2018-07-30T03:19:19.735Z,3.20
2018-07-30T03:21:46.929Z,3.40
2018-07-30T03:24:14.128Z,3.83
2018-07-30T03:26:41.309Z,3.00
2018-07-30T03:29:08.501Z,4.50
2018-07-30T03:31:35.695Z,3.73
2018-07-30T03:34:02.947Z,3.50
2018-07-30T03:36:30.224Z,3.63
2018-07-30T03:38:57.472Z,3.87
2018-07-30T03:41:24.643Z,3.90
2018-07-30T03:43:51.812Z,3.13
2018-07-30T03:46:19.003Z,3.53
2018-07-30T03:48:46.204Z,3.53
2018-07-30T03:51:13.403Z,3.80
2018-07-30T03:53:40.568Z,3.60
2018-07-30T03:56:07.733Z,3.23
2018-07-30T03:58:34.932Z,3.70
2018-07-30T04:01:02.226Z,3.80
2018-07-30T04:03:29.409Z,3.67
2018-07-30T04:05:56.584Z,3.53
2018-07-30T04:08:23.853Z,3.60
2018-07-30T04:10:51.086Z,3.67
2018-07-30T04:13:18.251Z,3.50
2018-07-30T04:15:45.435Z,3.70
2018-07-30T04:18:12.712Z,2.87
2018-07-30T04:20:39.939Z,3.90
2018-07-30T04:23:07.168Z,3.27
2018-07-30T04:25:34.340Z,3.73
2018-07-30T04:28:01.500Z,3.90
2018-07-30T04:30:28.740Z,3.53
2018-07-30T04:32:56.017Z,3.60
2018-07-30T04:35:23.318Z,4.13
2018-07-30T04:37:54.089Z,5.20
2018-07-30T04:40:21.279Z,4.67
2018-07-30T04:42:48.499Z,5.20
2018-07-30T04:45:15.679Z,5.30
2018-07-30T04:47:42.859Z,4.17
2018-07-30T04:50:10.038Z,4.27
2018-07-30T04:52:37.180Z,3.97
2018-07-30T04:55:04.393Z,4.93
2018-07-30T04:57:31.641Z,4.70
2018-07-30T04:59:58.812Z,4.50
2018-07-30T05:02:25.979Z,4.33
2018-07-30T05:04:53.265Z,4.50
2018-07-30T05:07:20.416Z,4.40
2018-07-30T05:09:47.592Z,4.40
2018-07-30T05:12:14.922Z,4.47
2018-07-30T05:14:42.307Z,4.30
2018-07-30T05:17:09.467Z,4.37
2018-07-30T05:19:36.954Z,3.70
2018-07-30T05:22:04.128Z,4.03
2018-07-30T05:24:31.314Z,4.47
2018-07-30T05:26:58.480Z,3.97
2018-07-30T05:29:25.719Z,4.63
2018-07-30T05:31:52.917Z,4.30
2018-07-30T05:34:20.186Z,4.30
2018-07-30T05:36:47.447Z,4.80
2018-07-30T05:39:14.635Z,4.43
2018-07-30T05:41:41.813Z,3.67
2018-07-30T05:44:09.098Z,4.17
2018-07-30T05:46:36.311Z,5.87
2018-07-30T05:49:03.784Z,4.60
2018-07-30T05:51:31.035Z,4.80
2018-07-30T05:53:58.223Z,4.93
2018-07-30T05:56:25.455Z,4.50
2018-07-30T05:58:52.652Z,4.70
2018-07-30T06:01:19.837Z,4.40
2018-07-30T06:03:47.043Z,3.70
2018-07-30T06:06:14.235Z,4.73
2018-07-30T06:08:41.556Z,4.07
2018-07-30T06:11:08.720Z,4.83
2018-07-30T06:13:36.023Z,4.20
2018-07-30T06:16:03.196Z,5.13
2018-07-30T06:18:30.360Z,4.07
2018-07-30T06:20:57.538Z,4.23
2018-07-30T06:23:24.936Z,4.27
2018-07-30T06:25:52.299Z,4.77
2018-07-30T06:28:19.759Z,3.50
2018-07-30T06:30:47.117Z,3.83
2018-07-30T06:33:14.500Z,4.30
2018-07-30T06:35:41.915Z,7.43
2018-07-30T06:38:09.260Z,4.10
2018-07-30T06:40:36.787Z,4.87
2018-07-30T06:43:04.168Z,4.50
2018-07-30T06:45:31.556Z,4.10
2018-07-30T06:47:58.972Z,4.17
2018-07-30T06:50:26.292Z,4.37
2018-07-30T06:52:53.639Z,3.70
2018-07-30T06:55:21.080Z,3.93
2018-07-30T06:57:48.432Z,4.20
2018-07-30T07:00:15.852Z,3.93
2018-07-30T07:02:43.200Z,3.57
2018-07-30T07:05:11.012Z,3.60
2018-07-30T07:07:38.360Z,4.97
2018-07-30T07:10:07.223Z,4.13
2018-07-30T07:12:34.636Z,4.80
2018-07-30T07:15:02.005Z,4.30
2018-07-30T07:17:29.380Z,4.57
2018-07-30T07:19:56.775Z,3.83
2018-07-30T07:22:24.136Z,4.57
2018-07-30T07:24:51.960Z,3.97
2018-07-30T07:27:19.408Z,3.70
2018-07-30T07:29:46.815Z,3.33
2018-07-30T07:32:14.175Z,3.67
2018-07-30T07:34:41.520Z,4.07
2018-07-30T07:37:09.429Z,3.40
2018-07-30T07:39:36.857Z,3.40
2018-07-30T07:42:04.253Z,4.07
2018-07-30T07:44:31.631Z,3.73
2018-07-30T07:46:59.011Z,4.50
2018-07-30T07:49:26.349Z,4.20
2018-07-30T07:51:53.827Z,4.23
2018-07-30T07:54:21.161Z,4.40
2018-07-30T07:56:48.513Z,3.63
2018-07-30T07:59:15.876Z,4.47
2018-07-30T08:01:43.250Z,4.57
2018-07-30T08:04:10.605Z,4.13
2018-07-30T08:06:37.991Z,4.13
2018-07-30T08:09:07.810Z,4.40
2018-07-30T08:11:35.181Z,4.67
2018-07-30T08:14:02.549Z,4.00
2018-07-30T08:16:29.902Z,4.30
2018-07-30T08:18:57.283Z,4.23
2018-07-30T08:21:24.665Z,4.43
2018-07-30T08:23:52.030Z,4.50
2018-07-30T08:26:19.396Z,4.73
2018-07-30T08:28:46.756Z,4.10
2018-07-30T08:31:14.141Z,4.23
2018-07-30T08:33:41.513Z,4.80
2018-07-30T08:36:08.959Z,3.97
2018-07-30T08:38:36.456Z,4.37
2018-07-30T08:41:03.874Z,4.27
2018-07-30T08:43:31.196Z,4.17
2018-07-30T08:45:58.576Z,4.10
2018-07-30T08:48:25.944Z,4.13
2018-07-30T08:50:53.295Z,4.30
2018-07-30T08:53:20.743Z,4.20
2018-07-30T08:55:48.178Z,4.47
2018-07-30T08:58:15.556Z,4.00
2018-07-30T09:00:42.900Z,4.37
2018-07-30T09:03:10.280Z,4.13
2018-07-30T09:05:37.720Z,4.27
2018-07-30T09:08:05.111Z,4.80
2018-07-30T09:10:32.457Z,4.40
2018-07-30T09:13:00.148Z,4.37
2018-07-30T09:15:27.483Z,4.40
2018-07-30T09:17:54.840Z,4.27
2018-07-30T09:20:22.275Z,4.40
2018-07-30T09:22:50.033Z,4.30
2018-07-30T09:25:17.371Z,4.70
2018-07-30T09:27:44.753Z,3.70
2018-07-30T09:30:12.152Z,3.80
2018-07-30T09:32:39.579Z,4.10
2018-07-30T09:35:07.080Z,3.57
2018-07-30T09:37:34.468Z,4.07
2018-07-30T09:40:01.956Z,3.33
2018-07-30T09:42:29.339Z,3.40
2018-07-30T09:44:56.820Z,3.03
2018-07-30T09:47:24.143Z,3.97
2018-07-30T09:49:51.646Z,3.73
2018-07-30T09:52:19.015Z,3.20
2018-07-30T09:54:46.380Z,3.50
2018-07-30T09:57:13.744Z,2.83
2018-07-30T09:59:41.107Z,2.90
2018-07-30T10:02:08.484Z,3.77
2018-07-30T10:04:35.855Z,3.23
2018-07-30T10:07:03.227Z,3.50
2018-07-30T10:09:30.600Z,2.90
2018-07-30T10:11:58.020Z,3.50
2018-07-30T10:14:25.839Z,3.67
2018-07-30T10:16:53.804Z,3.40
2018-07-30T10:19:21.170Z,3.37
2018-07-30T10:21:48.593Z,3.50
2018-07-30T10:24:15.964Z,3.57
2018-07-30T10:26:43.369Z,3.27
2018-07-30T10:29:10.739Z,3.20
2018-07-30T10:31:38.108Z,3.20
2018-07-30T10:34:05.486Z,3.10
2018-07-30T10:36:33.011Z,3.00
2018-07-30T10:39:00.435Z,2.93
2018-07-30T10:41:27.769Z,2.57
2018-07-30T10:43:55.193Z,3.60
2018-07-30T10:46:22.608Z,2.80
2018-07-30T10:48:49.943Z,2.60
2018-07-30T10:51:17.285Z,3.27
2018-07-30T10:53:44.609Z,3.20
2018-07-30T10:56:11.974Z,2.90
2018-07-30T10:58:39.334Z,3.10
2018-07-30T11:01:06.755Z,3.57
2018-07-30T11:03:34.119Z,2.67
2018-07-30T11:06:01.556Z,3.17
2018-07-30T11:08:28.884Z,3.10
2018-07-30T11:10:56.247Z,3.10
2018-07-30T11:13:23.679Z,2.20
2018-07-30T11:15:51.071Z,3.17
2018-07-30T11:18:18.432Z,3.20
2018-07-30T11:20:45.822Z,2.90
2018-07-30T11:23:13.191Z,2.90
2018-07-30T11:25:40.580Z,3.00
2018-07-30T11:28:07.986Z,2.83
2018-07-30T11:30:35.323Z,2.57
2018-07-30T11:33:02.795Z,2.80
2018-07-30T11:35:30.140Z,3.17
2018-07-30T11:37:57.478Z,3.13
2018-07-30T11:40:24.827Z,2.50
2018-07-30T11:42:52.270Z,2.50
2018-07-30T11:45:19.623Z,2.80
2018-07-30T11:47:46.989Z,2.20
2018-07-30T11:50:14.433Z,2.20
2018-07-30T11:52:41.790Z,2.30
2018-07-30T11:55:09.127Z,2.30
2018-07-30T11:57:36.575Z,2.40
2018-07-30T12:00:04.091Z,2.73
2018-07-30T12:02:31.545Z,2.43
2018-07-30T12:04:58.939Z,2.40
2018-07-30T12:07:26.287Z,2.23
2018-07-30T12:09:53.643Z,2.17
2018-07-30T12:12:21.012Z,2.30
2018-07-30T12:14:48.360Z,2.43
2018-07-30T12:17:15.714Z,1.90
2018-07-30T12:19:43.071Z,2.77
2018-07-30T12:22:10.438Z,2.10
2018-07-30T12:24:37.802Z,2.40
2018-07-30T12:27:05.239Z,2.70
2018-07-30T12:29:32.615Z,2.77
2018-07-30T12:31:59.989Z,2.67
2018-07-30T12:34:27.345Z,2.60
2018-07-30T12:36:54.690Z,2.57
2018-07-30T12:39:22.103Z,2.40
2018-07-30T12:41:49.566Z,2.80
2018-07-30T12:44:16.823Z,3.10
2018-07-30T12:46:44.223Z,3.50
2018-07-30T12:49:11.576Z,2.70
2018-07-30T12:51:38.904Z,2.47
2018-07-30T12:54:06.351Z,2.80
2018-07-30T12:56:33.699Z,3.37
2018-07-30T12:59:01.123Z,2.30
2018-07-30T13:01:28.503Z,2.60
2018-07-30T13:03:56.167Z,2.93
2018-07-30T13:06:23.356Z,2.70
2018-07-30T13:08:50.511Z,3.23
2018-07-30T13:11:17.655Z,3.13
2018-07-30T13:13:44.861Z,3.10
2018-07-30T13:16:12.043Z,2.50
2018-07-30T13:18:39.372Z,2.50
2018-07-30T13:21:06.683Z,3.00
2018-07-30T13:23:33.728Z,2.90
2018-07-30T13:26:00.967Z,2.90
2018-07-30T13:28:28.132Z,3.33
2018-07-30T13:30:55.371Z,3.07
2018-07-30T13:33:22.530Z,3.00
2018-07-30T13:35:49.675Z,3.10
2018-07-30T13:38:16.831Z,3.47
2018-07-30T13:40:44.011Z,3.80
2018-07-30T13:43:11.200Z,3.00
2018-07-30T13:45:38.390Z,3.07
2018-07-30T13:48:05.576Z,3.43
2018-07-30T13:50:32.823Z,3.57
2018-07-30T13:52:59.983Z,3.00
2018-07-30T13:55:27.216Z,3.43
2018-07-30T13:57:54.547Z,3.13
2018-07-30T14:00:21.703Z,3.47
2018-07-30T14:02:48.856Z,3.50
2018-07-30T14:05:16.037Z,4.00
2018-07-30T14:07:43.268Z,3.57
2018-07-30T14:10:10.452Z,3.37
2018-07-30T14:12:37.813Z,3.50
2018-07-30T14:15:05.322Z,4.33
2018-07-30T14:17:33.312Z,4.30
2018-07-30T14:20:00.585Z,4.10
2018-07-30T14:22:27.780Z,4.80
2018-07-30T14:24:54.935Z,3.70
2018-07-30T14:27:22.167Z,3.63
2018-07-30T14:29:50.421Z,3.63
2018-07-30T14:32:17.670Z,3.50
2018-07-30T14:34:44.847Z,3.97
2018-07-30T14:37:12.023Z,4.13
2018-07-30T14:39:39.251Z,3.90
2018-07-30T14:42:06.427Z,3.97
2018-07-30T14:44:33.620Z,3.80
2018-07-30T14:47:00.803Z,4.27
2018-07-30T14:49:28.026Z,4.20
2018-07-30T14:51:55.207Z,4.60
2018-07-30T14:54:22.485Z,4.10
2018-07-30T14:56:49.647Z,4.20
2018-07-30T14:59:16.896Z,4.50
2018-07-30T15:01:44.015Z,4.50
2018-07-30T15:04:11.210Z,4.70
2018-07-30T15:06:38.435Z,3.73
2018-07-30T15:09:08.176Z,3.90
2018-07-30T15:11:35.710Z,4.30
2018-07-30T15:14:02.900Z,4.67
2018-07-30T15:16:30.057Z,4.03
2018-07-30T15:18:57.220Z,4.73
2018-07-30T15:21:24.419Z,4.00
2018-07-30T15:23:51.571Z,3.93
2018-07-30T15:26:18.764Z,4.00
2018-07-30T15:28:46.041Z,4.53
2018-07-30T15:31:13.236Z,4.70
2018-07-30T15:33:40.411Z,4.97
2018-07-30T15:36:07.599Z,4.20
2018-07-30T15:38:34.761Z,4.30
2018-07-30T15:41:01.911Z,4.30
2018-07-30T15:43:29.095Z,4.10
2018-07-30T15:45:56.267Z,3.93
2018-07-30T15:48:23.463Z,4.17
2018-07-30T15:50:50.684Z,4.80
2018-07-30T15:53:17.841Z,4.67
2018-07-30T15:55:45.011Z,4.03
2018-07-30T15:58:12.190Z,4.00
2018-07-30T16:00:39.431Z,3.80
2018-07-30T16:03:06.747Z,4.30
2018-07-30T16:05:34.009Z,4.57
2018-07-30T16:08:01.167Z,4.60
2018-07-30T16:10:28.547Z,4.37
2018-07-30T16:12:55.896Z,4.40
2018-07-30T16:15:23.235Z,4.33
2018-07-30T16:17:50.715Z,4.83
2018-07-30T16:20:18.119Z,3.93
2018-07-30T16:22:45.498Z,4.60
2018-07-30T16:25:12.892Z,4.30
2018-07-30T16:27:40.319Z,4.63
2018-07-30T16:30:08.287Z,4.60
2018-07-30T16:32:35.733Z,4.57
2018-07-30T16:35:03.311Z,4.40
2018-07-30T16:37:30.680Z,4.73
2018-07-30T16:39:58.047Z,4.23
2018-07-30T16:42:25.457Z,4.87
2018-07-30T16:44:52.905Z,4.10
2018-07-30T16:47:20.320Z,4.70
2018-07-30T16:49:47.680Z,4.60
2018-07-30T16:52:15.057Z,4.37
2018-07-30T16:54:42.451Z,4.57
2018-07-30T16:57:09.818Z,4.53
2018-07-30T16:59:37.163Z,4.70
2018-07-30T17:02:04.587Z,3.87
2018-07-30T17:04:32.674Z,4.70
2018-07-30T17:07:00.235Z,4.40
2018-07-30T17:09:27.609Z,5.20
2018-07-30T17:11:54.981Z,4.27
2018-07-30T17:14:22.320Z,4.10
2018-07-30T17:16:49.764Z,4.57
2018-07-30T17:19:17.190Z,5.40
2018-07-30T17:21:44.643Z,4.80
2018-07-30T17:24:11.973Z,4.20
2018-07-30T17:26:39.329Z,4.90
2018-07-30T17:29:06.699Z,4.40
2018-07-30T17:31:34.068Z,4.93
2018-07-30T17:34:01.636Z,4.97
2018-07-30T17:36:29.039Z,4.57
2018-07-30T17:38:56.397Z,4.23
2018-07-30T17:41:23.783Z,4.57
2018-07-30T17:43:51.198Z,4.73
2018-07-30T17:46:18.581Z,4.13
2018-07-30T17:48:45.948Z,4.23
2018-07-30T17:51:13.367Z,4.30
2018-07-30T17:53:40.759Z,5.03
2018-07-30T17:56:08.144Z,5.40
2018-07-30T17:58:35.569Z,4.13
2018-07-30T18:01:03.005Z,4.43
2018-07-30T18:03:30.472Z,4.40
2018-07-30T18:05:57.908Z,4.63
2018-07-30T18:08:25.253Z,5.00
2018-07-30T18:10:52.660Z,4.40
2018-07-30T18:13:20.024Z,3.93
2018-07-30T18:15:47.367Z,4.60
2018-07-30T18:18:14.716Z,4.67
2018-07-30T18:20:42.080Z,4.90
2018-07-30T18:23:09.607Z,4.83
2018-07-30T18:25:36.978Z,4.80
2018-07-30T18:28:04.366Z,5.07
2018-07-30T18:30:31.708Z,4.63
2018-07-30T18:32:59.075Z,5.00
2018-07-30T18:35:26.487Z,5.37
2018-07-30T18:37:53.904Z,6.47
2018-07-30T18:40:21.278Z,6.30
2018-07-30T18:42:48.704Z,5.40
2018-07-30T18:45:16.098Z,5.80
2018-07-30T18:47:43.439Z,5.27
2018-07-30T18:50:10.784Z,5.50
2018-07-30T18:52:38.191Z,5.30
2018-07-30T18:55:05.815Z,5.47
2018-07-30T18:57:33.183Z,5.70
2018-07-30T19:00:00.527Z,4.90
2018-07-30T19:02:27.859Z,5.23
2018-07-30T19:04:55.253Z,6.37
2018-07-30T19:07:22.717Z,5.80
2018-07-30T19:09:50.071Z,6.63
2018-07-30T19:12:17.427Z,6.20
2018-07-30T19:14:44.776Z,5.93
2018-07-30T19:17:12.166Z,6.47
2018-07-30T19:19:39.527Z,5.57
2018-07-30T19:22:06.864Z,5.80
2018-07-30T19:24:34.241Z,5.27
2018-07-30T19:27:01.609Z,6.10
2018-07-30T19:29:28.963Z,5.60
2018-07-30T19:31:56.330Z,6.27
2018-07-30T19:34:23.697Z,6.30
2018-07-30T19:36:51.140Z,6.00
2018-07-30T19:39:18.661Z,5.60
2018-07-30T19:41:46.025Z,5.47
2018-07-30T19:44:13.425Z,5.43
2018-07-30T19:46:40.779Z,6.20
2018-07-30T19:49:08.111Z,5.73
2018-07-30T19:51:35.789Z,5.97
2018-07-30T19:54:03.156Z,5.77
2018-07-30T19:56:30.484Z,5.37
2018-07-30T19:58:58.070Z,5.43
2018-07-30T20:01:25.351Z,6.77
2018-07-30T20:03:53.535Z,6.10
2018-07-30T20:06:20.989Z,6.47
2018-07-30T20:08:48.423Z,5.83
2018-07-30T20:11:15.878Z,6.70
2018-07-30T20:13:43.263Z,5.50
2018-07-30T20:16:10.610Z,6.70
2018-07-30T20:18:37.996Z,6.53
2018-07-30T20:21:05.456Z,6.13
2018-07-30T20:23:32.851Z,6.77
2018-07-30T20:26:00.236Z,6.60
2018-07-30T20:28:28.088Z,6.43
2018-07-30T20:30:55.592Z,7.10
2018-07-30T20:33:22.927Z,6.40
2018-07-30T20:35:50.311Z,6.60
2018-07-30T20:38:17.704Z,6.00
2018-07-30T20:40:45.092Z,6.67
2018-07-30T20:43:12.480Z,6.57
2018-07-30T20:45:39.876Z,6.50
2018-07-30T20:48:07.289Z,6.40
2018-07-30T20:50:34.676Z,6.23
2018-07-30T20:53:02.055Z,7.07
2018-07-30T20:55:29.408Z,6.47
2018-07-30T20:57:56.883Z,5.77
2018-07-30T21:00:24.299Z,6.40
2018-07-30T21:02:51.812Z,6.50
2018-07-30T21:05:19.174Z,6.67
2018-07-30T21:07:46.543Z,6.83
2018-07-30T21:10:14.000Z,6.10
2018-07-30T21:12:41.456Z,6.30
2018-07-30T21:15:08.815Z,6.00
2018-07-30T21:17:36.229Z,6.67
2018-07-30T21:20:04.052Z,6.60
2018-07-30T21:22:31.455Z,5.97
2018-07-30T21:24:58.853Z,6.73
2018-07-30T21:27:26.213Z,6.43
2018-07-30T21:29:53.627Z,5.40
2018-07-30T21:32:21.015Z,5.70
2018-07-30T21:34:48.412Z,6.37
2018-07-30T21:37:15.794Z,5.70
2018-07-30T21:39:43.131Z,6.00
2018-07-30T21:42:10.513Z,6.57
2018-07-30T21:44:37.869Z,5.50
2018-07-30T21:47:05.273Z,5.63
2018-07-30T21:49:32.623Z,5.73
2018-07-30T21:51:59.962Z,5.10
2018-07-30T21:54:27.304Z,4.33
2018-07-30T21:56:54.689Z,4.80
2018-07-30T21:59:22.693Z,5.37
2018-07-30T22:01:50.093Z,5.10
2018-07-30T22:04:17.456Z,4.70
2018-07-30T22:06:44.912Z,4.90
2018-07-30T22:09:12.326Z,4.63
2018-07-30T22:11:39.691Z,5.33
2018-07-30T22:14:07.089Z,4.90
2018-07-30T22:16:34.551Z,4.43
2018-07-30T22:19:01.936Z,4.77
2018-07-30T22:21:29.353Z,5.03
2018-07-30T22:23:56.711Z,5.07
2018-07-30T22:26:24.139Z,4.20
2018-07-30T22:28:51.515Z,4.80
2018-07-30T22:31:18.884Z,4.10
2018-07-30T22:33:46.300Z,5.03
2018-07-30T22:36:13.670Z,4.37
2018-07-30T22:38:41.089Z,4.20
2018-07-30T22:41:08.559Z,4.60
2018-07-30T22:43:35.958Z,5.53
2018-07-30T22:46:03.531Z,4.60
2018-07-30T22:48:30.891Z,4.70
2018-07-30T22:50:58.229Z,4.00
2018-07-30T22:53:25.627Z,4.00
2018-07-30T22:55:52.971Z,5.10
2018-07-30T22:58:20.439Z,5.20
2018-07-30T23:00:47.807Z,4.87
2018-07-30T23:03:15.244Z,4.10
2018-07-30T23:05:42.619Z,4.43
2018-07-30T23:08:09.980Z,4.23
2018-07-30T23:10:37.408Z,4.37
2018-07-30T23:13:04.940Z,4.13
2018-07-30T23:15:32.276Z,4.23
2018-07-30T23:17:59.631Z,3.90
2018-07-30T23:20:27.007Z,5.00
2018-07-30T23:22:54.346Z,4.60
2018-07-30T23:25:21.755Z,4.17
2018-07-30T23:27:49.120Z,5.13
2018-07-30T23:30:16.587Z,4.33
2018-07-30T23:32:44.019Z,4.60
2018-07-30T23:35:11.393Z,4.30
2018-07-30T23:37:38.756Z,4.50
2018-07-30T23:40:06.313Z,3.97
2018-07-30T23:42:33.679Z,3.87
2018-07-30T23:45:01.085Z,3.77
2018-07-30T23:47:28.536Z,3.87
2018-07-30T23:49:55.880Z,3.93
2018-07-30T23:52:23.224Z,4.07
2018-07-30T23:54:50.591Z,3.73
2018-07-30T23:57:17.917Z,3.33
2018-07-30T23:59:45.280Z,3.83
